Time;durP1;ratioP1;P1;durP2;ratioP2;P2;SDS_P1;SDS_P2;PMS_P1;PMS_P2;Temp;Humidity;BMP_temperature;BMP_pressure;BME280_temperature;BME280_humidity;BME280_pressure;Samples;Min_cycle;Max_cycle;Signal;HPM_P1;HPM_P2
2022/08/19 00:02:20;;;;;;;16.93;15.40;;;20.40;99.90;;;;;;5055917;28;20543;-80
2022/08/19 00:04:52;;;;;;;18.57;16.80;;;20.40;99.90;;;;;;5056350;28;20457;-80
2022/08/19 00:07:19;;;;;;;16.97;15.57;;;20.40;99.90;;;;;;5055652;28;20985;-80
2022/08/19 00:09:46;;;;;;;19.30;16.53;;;20.40;99.90;;;;;;5055625;28;20453;-80
2022/08/19 00:12:13;;;;;;;18.17;16.47;;;20.40;99.90;;;;;;5055421;28;20461;-80
2022/08/19 00:14:41;;;;;;;15.83;14.40;;;20.40;99.90;;;;;;5055324;28;20456;-80
2022/08/19 00:17:09;;;;;;;17.30;15.70;;;20.40;99.90;;;;;;5054936;28;20973;-80
2022/08/19 00:19:37;;;;;;;16.73;15.13;;;20.40;99.90;;;;;;5055322;28;20480;-79
2022/08/19 00:22:05;;;;;;;17.87;16.13;;;20.40;99.90;;;;;;5055403;28;20492;-80
2022/08/19 00:24:33;;;;;;;16.63;15.10;;;20.40;99.90;;;;;;5055118;28;20456;-80
2022/08/19 00:27:01;;;;;;;15.97;14.37;;;20.30;99.90;;;;;;5055434;28;20448;-79
2022/08/19 00:29:28;;;;;;;16.07;14.47;;;20.30;99.90;;;;;;5055250;28;20455;-80
2022/08/19 00:31:59;;;;;;;17.77;16.07;;;20.30;99.90;;;;;;5055283;28;20520;-80
2022/08/19 00:34:27;;;;;;;18.13;16.23;;;20.30;99.90;;;;;;5055157;28;20545;-80
2022/08/19 00:36:55;;;;;;;15.80;14.30;;;20.30;99.90;;;;;;5054993;28;20489;-80
2022/08/19 00:39:22;;;;;;;16.80;15.10;;;20.20;99.90;;;;;;5054668;28;20448;-80
2022/08/19 00:41:50;;;;;;;16.70;15.00;;;20.20;99.90;;;;;;5054864;28;20491;-80
2022/08/19 00:44:20;;;;;;;17.00;15.33;;;20.20;99.90;;;;;;5054982;28;20458;-80
2022/08/19 00:46:49;;;;;;;16.60;14.93;;;20.10;99.90;;;;;;5054988;28;20455;-80
2022/08/19 00:49:24;;;;;;;16.63;15.07;;;20.10;99.90;;;;;;5054560;28;20453;-80
2022/08/19 00:51:56;;;;;;;17.00;15.40;;;20.10;99.90;;;;;;5054747;28;20499;-80
2022/08/19 00:54:24;;;;;;;16.23;14.73;;;20.10;99.90;;;;;;5055077;28;20456;-80
2022/08/19 00:56:51;;;;;;;17.13;15.30;;;20.00;99.90;;;;;;5054966;28;20453;-80
2022/08/19 00:59:19;;;;;;;17.10;15.50;;;20.00;99.90;;;;;;5054505;28;20831;-80
2022/08/19 01:01:47;;;;;;;17.50;15.87;;;20.00;99.90;;;;;;5054750;28;20489;-80
2022/08/19 01:04:14;;;;;;;18.27;16.47;;;20.00;99.90;;;;;;5054734;28;20471;-80
2022/08/19 01:06:43;;;;;;;20.07;17.97;;;19.90;99.90;;;;;;5054493;28;20493;-80
2022/08/19 01:09:10;;;;;;;18.47;16.00;;;19.90;99.90;;;;;;5053834;28;20447;-80
2022/08/19 01:11:41;;;;;;;21.70;17.97;;;19.90;99.90;;;;;;5054579;28;20472;-80
2022/08/19 01:14:09;;;;;;;20.00;16.70;;;19.80;99.90;;;;;;5053964;28;20812;-80
2022/08/19 01:16:38;;;;;;;18.27;16.40;;;19.80;99.90;;;;;;5054659;28;20449;-80
2022/08/19 01:19:13;;;;;;;18.60;16.77;;;19.70;99.90;;;;;;5053834;28;20460;-80
2022/08/19 01:21:46;;;;;;;18.20;16.50;;;19.70;99.90;;;;;;5054060;28;20489;-80
2022/08/19 01:24:15;;;;;;;19.20;17.30;;;19.70;99.90;;;;;;5049323;28;20458;-80
2022/08/19 01:26:44;;;;;;;17.93;16.13;;;19.70;99.90;;;;;;5054485;28;20448;-80
2022/08/19 01:29:11;;;;;;;18.77;16.77;;;19.70;99.90;;;;;;5053428;28;20448;-80
2022/08/19 01:31:39;;;;;;;17.80;16.10;;;19.70;99.90;;;;;;5054238;28;20879;-80
2022/08/19 01:34:07;;;;;;;19.43;17.40;;;19.70;99.90;;;;;;5054215;28;20480;-80
2022/08/19 01:36:37;;;;;;;19.37;17.63;;;19.70;99.90;;;;;;5054531;28;20531;-80
2022/08/19 01:39:07;;;;;;;18.40;16.50;;;19.70;99.90;;;;;;5054134;28;20456;-80
2022/08/19 01:41:35;;;;;;;17.80;15.93;;;19.70;99.90;;;;;;5053819;28;20567;-80
2022/08/19 01:44:04;;;;;;;16.70;15.20;;;19.70;99.90;;;;;;5053971;28;20458;-80
2022/08/19 01:46:31;;;;;;;20.13;18.07;;;19.70;99.90;;;;;;5053899;28;20448;-80
2022/08/19 01:48:58;;;;;;;19.47;17.53;;;19.70;99.90;;;;;;5053399;28;20491;-79
2022/08/19 01:51:25;;;;;;;19.73;16.90;;;19.70;99.90;;;;;;5053646;28;20831;-80
2022/08/19 01:53:52;;;;;;;19.97;17.70;;;19.70;99.90;;;;;;5053523;28;20459;-80
2022/08/19 01:56:19;;;;;;;18.53;16.80;;;19.70;99.90;;;;;;5053783;28;20456;-80
2022/08/19 01:58:52;;;;;;;18.80;16.93;;;19.70;99.90;;;;;;5053172;28;20494;-80
2022/08/19 02:01:19;;;;;;;20.87;17.97;;;19.70;99.90;;;;;;5053675;28;20480;-80
2022/08/19 02:03:46;;;;;;;20.07;18.07;;;19.80;99.90;;;;;;5055462;28;20448;-78
2022/08/19 02:06:13;;;;;;;20.83;18.83;;;19.70;99.90;;;;;;5058719;28;20453;-78
2022/08/19 02:08:40;;;;;;;18.40;16.50;;;19.70;99.90;;;;;;5056105;28;20448;-79
2022/08/19 02:11:08;;;;;;;19.30;17.33;;;19.70;99.90;;;;;;5053332;28;20981;-80
2022/08/19 02:13:35;;;;;;;19.87;17.90;;;19.70;99.90;;;;;;5053271;28;20452;-80
2022/08/19 02:16:03;;;;;;;19.33;17.43;;;19.70;99.90;;;;;;5053652;28;20444;-80
2022/08/19 02:18:30;;;;;;;18.87;17.07;;;19.60;99.90;;;;;;5053016;28;20448;-80
2022/08/19 02:20:57;;;;;;;19.27;17.37;;;19.60;99.90;;;;;;5053577;28;20948;-80
2022/08/19 02:23:24;;;;;;;21.10;18.87;;;19.60;99.90;;;;;;5053221;28;20456;-80
2022/08/19 02:25:52;;;;;;;19.80;17.70;;;19.60;99.90;;;;;;5053277;28;20521;-80
2022/08/19 02:28:19;;;;;;;22.70;19.20;;;19.60;99.90;;;;;;5052771;28;20953;-80
2022/08/19 02:30:47;;;;;;;19.90;17.87;;;19.60;99.90;;;;;;5053192;28;20452;-80
2022/08/19 02:33:15;;;;;;;19.73;17.70;;;19.60;99.90;;;;;;5053283;28;20445;-80
2022/08/19 02:35:43;;;;;;;19.87;17.77;;;19.70;99.90;;;;;;5053240;28;20451;-80
2022/08/19 02:38:27;;;;;;;22.03;18.40;;;19.60;99.90;;;;;;5053234;28;20452;-80
2022/08/19 02:40:57;;;;;;;20.00;17.90;;;19.60;99.90;;;;;;5053892;28;20448;-80
2022/08/19 02:43:25;;;;;;;22.27;19.27;;;19.60;99.90;;;;;;5057206;28;20491;-80
2022/08/19 02:45:52;;;;;;;21.03;18.93;;;19.60;99.90;;;;;;5056925;28;20462;-79
2022/08/19 02:48:23;;;;;;;22.90;20.50;;;19.50;99.90;;;;;;5056597;28;20455;-80
2022/08/19 02:50:55;;;;;;;23.70;21.30;;;19.50;99.90;;;;;;5057704;28;20953;-79
2022/08/19 02:53:22;;;;;;;23.83;20.73;;;19.50;99.90;;;;;;5045187;28;20448;-80
2022/08/19 02:55:50;;;;;;;19.70;16.93;;;19.40;99.90;;;;;;5057150;28;20467;-80
2022/08/19 02:58:18;;;;;;;22.20;19.33;;;19.40;99.90;;;;;;5056507;28;20452;-80
2022/08/19 03:00:47;;;;;;;19.97;17.83;;;19.40;99.90;;;;;;5056791;28;20456;-80
2022/08/19 03:03:14;;;;;;;25.43;21.23;;;19.40;99.90;;;;;;5056881;28;20484;-80
2022/08/19 03:05:43;;;;;;;23.30;20.10;;;19.30;99.90;;;;;;5056961;28;20452;-80
2022/08/19 03:08:12;;;;;;;23.33;20.40;;;19.30;99.90;;;;;;5056457;28;20459;-80
2022/08/19 03:10:44;;;;;;;22.57;20.47;;;19.40;99.90;;;;;;5057145;28;20819;-80
2022/08/19 03:13:12;;;;;;;25.57;21.47;;;19.30;99.90;;;;;;5056573;28;20444;-79
2022/08/19 03:15:41;;;;;;;23.83;21.23;;;19.30;99.90;;;;;;5057348;28;20810;-80
2022/08/19 03:18:08;;;;;;;22.73;20.33;;;19.30;99.90;;;;;;5056489;28;20466;-80
2022/08/19 03:20:35;;;;;;;25.50;21.07;;;19.30;99.90;;;;;;5056721;28;20452;-79
2022/08/19 03:23:03;;;;;;;24.60;22.00;;;19.30;99.90;;;;;;5056516;28;20491;-80
2022/08/19 03:25:29;;;;;;;28.00;25.07;;;19.20;99.90;;;;;;5056939;28;20453;-80
2022/08/19 03:27:56;;;;;;;26.93;21.30;;;19.30;99.90;;;;;;5055742;28;20473;-80
2022/08/19 03:30:23;;;;;;;27.43;23.33;;;19.30;99.90;;;;;;5056149;28;20458;-80
2022/08/19 03:32:49;;;;;;;27.80;23.97;;;19.30;99.90;;;;;;5056314;28;20472;-80
2022/08/19 03:35:16;;;;;;;25.30;22.50;;;19.30;99.90;;;;;;5056581;28;20445;-80
2022/08/19 03:37:43;;;;;;;25.70;23.00;;;19.30;99.90;;;;;;5055900;28;20456;-80
2022/08/19 03:40:11;;;;;;;25.07;22.10;;;19.30;99.90;;;;;;5056372;28;20465;-80
2022/08/19 03:42:40;;;;;;;22.83;20.50;;;19.30;99.90;;;;;;5055620;28;20479;-80
2022/08/19 03:45:07;;;;;;;25.13;21.33;;;19.30;99.90;;;;;;5056492;28;20458;-80
2022/08/19 03:47:34;;;;;;;22.37;20.33;;;19.20;99.90;;;;;;5055148;28;20502;-80
2022/08/19 03:50:01;;;;;;;28.40;22.27;;;19.30;99.90;;;;;;5056009;28;20945;-80
2022/08/19 03:52:28;;;;;;;25.63;20.67;;;19.30;99.90;;;;;;5055767;28;20486;-80
2022/08/19 03:54:55;;;;;;;25.07;22.37;;;19.30;99.90;;;;;;5055767;28;20471;-79
2022/08/19 03:57:23;;;;;;;24.40;21.77;;;19.30;99.90;;;;;;5055508;28;20448;-80
2022/08/19 03:59:49;;;;;;;27.30;24.60;;;19.30;99.90;;;;;;5055576;28;20452;-80
2022/08/19 04:02:17;;;;;;;27.57;24.73;;;19.20;99.90;;;;;;5055621;28;20484;-80
2022/08/19 04:04:44;;;;;;;25.33;22.83;;;19.20;99.90;;;;;;5055898;28;20470;-80
2022/08/19 04:07:15;;;;;;;25.30;22.60;;;19.10;99.90;;;;;;5055717;28;20472;-80
2022/08/19 04:09:42;;;;;;;25.63;23.13;;;19.10;99.90;;;;;;5055243;28;20460;-80
2022/08/19 04:12:09;;;;;;;24.87;22.20;;;19.10;99.90;;;;;;5055780;28;20470;-80
2022/08/19 04:14:37;;;;;;;26.27;21.43;;;19.10;99.90;;;;;;5055539;28;20459;-80
2022/08/19 04:17:05;;;;;;;26.23;23.37;;;19.10;99.90;;;;;;5060677;28;20459;-79
2022/08/19 04:19:32;;;;;;;26.13;23.40;;;19.00;99.90;;;;;;5059966;28;21034;-79
2022/08/19 04:21:59;;;;;;;26.57;23.77;;;19.00;99.90;;;;;;5055570;28;21000;-80
2022/08/19 04:24:26;;;;;;;25.70;23.03;;;19.00;99.90;;;;;;5055461;28;20842;-80
2022/08/19 04:26:53;;;;;;;29.83;24.87;;;19.00;99.90;;;;;;5055461;28;20448;-80
2022/08/19 04:29:24;;;;;;;26.73;22.73;;;19.00;99.90;;;;;;5054790;28;20448;-80
2022/08/19 04:31:54;;;;;;;29.20;26.10;;;19.00;99.90;;;;;;5075945;22;20511;-82
2022/08/19 04:34:23;;;;;;;28.53;24.30;;;19.00;99.90;;;;;;5026513;28;20446;-82
2022/08/19 04:36:51;;;;;;;28.40;25.53;;;19.00;99.90;;;;;;5037647;28;20969;-82
2022/08/19 04:39:20;;;;;;;29.60;26.40;;;19.00;99.90;;;;;;5045656;28;20456;-82
2022/08/19 04:44:32;;;;;;;27.43;24.53;;;19.00;99.90;;;;;;5045616;28;20468;-82
2022/08/19 04:47:00;;;;;;;29.53;25.90;;;19.00;99.90;;;;;;5044773;28;20456;-82
2022/08/19 04:49:27;;;;;;;31.30;24.50;;;18.90;99.90;;;;;;5044041;28;20966;-83
2022/08/19 04:51:55;;;;;;;28.30;25.30;;;19.00;99.90;;;;;;5037814;28;21020;-83
2022/08/19 04:54:24;;;;;;;28.87;24.37;;;19.00;99.90;;;;;;5038475;28;20449;-84
2022/08/19 04:56:58;;;;;;;27.03;24.20;;;19.00;99.90;;;;;;5037911;28;20491;-83
2022/08/19 04:59:24;;;;;;;25.70;23.03;;;19.10;99.90;;;;;;5031685;28;20449;-83
2022/08/19 05:01:55;;;;;;;26.90;24.03;;;19.10;99.90;;;;;;5035695;28;20479;-83
2022/08/19 05:04:25;;;;;;;32.10;27.37;;;19.10;99.90;;;;;;5036260;28;20520;-84
2022/08/19 05:06:53;;;;;;;27.90;25.10;;;19.10;99.90;;;;;;5037813;28;20455;-83
2022/08/19 05:09:22;;;;;;;27.93;25.23;;;19.20;99.90;;;;;;5039090;28;20826;-83
2022/08/19 05:11:52;;;;;;;25.10;22.60;;;19.20;99.90;;;;;;5038593;28;20472;-83
2022/08/19 05:14:21;;;;;;;27.10;23.40;;;19.20;99.90;;;;;;5039099;28;20558;-84
2022/08/19 05:16:52;;;;;;;27.07;24.27;;;19.20;99.90;;;;;;5036360;28;20465;-84
2022/08/19 05:24:54;;;;;;;26.87;23.13;;;19.30;99.90;;;;;;5035612;28;20450;-82
2022/08/19 05:27:20;;;;;;;26.07;23.43;;;19.30;99.90;;;;;;5033829;28;20495;-83
2022/08/19 05:29:49;;;;;;;26.07;23.37;;;19.40;99.90;;;;;;5034397;28;20953;-84
2022/08/19 05:32:15;;;;;;;29.40;24.77;;;19.40;99.90;;;;;;5035179;28;20915;-84
2022/08/19 05:34:42;;;;;;;27.33;24.27;;;19.40;99.90;;;;;;5034939;28;20990;-83
2022/08/19 05:37:11;;;;;;;28.10;25.20;;;19.40;99.90;;;;;;5035618;28;20456;-83
2022/08/19 05:39:40;;;;;;;28.17;25.57;;;19.40;99.90;;;;;;5034892;28;20458;-83
2022/08/19 05:42:09;;;;;;;25.70;23.00;;;19.40;99.90;;;;;;5035211;28;20511;-82
2022/08/19 05:44:39;;;;;;;26.77;23.90;;;19.40;99.90;;;;;;5035183;28;20951;-82
2022/08/19 05:47:08;;;;;;;27.67;24.90;;;19.40;99.90;;;;;;5035032;28;20457;-84
2022/08/19 05:49:36;;;;;;;27.47;24.60;;;19.40;99.90;;;;;;5033896;28;20453;-82
2022/08/19 05:52:04;;;;;;;25.47;22.87;;;19.30;99.90;;;;;;5035142;28;20476;-83
2022/08/19 05:54:35;;;;;;;27.10;24.40;;;19.30;99.90;;;;;;5032416;28;20532;-84
2022/08/19 06:14:07;;;;;;;29.83;22.70;;;19.40;99.90;;;;;;4922296;29;20450;-84
2022/08/19 06:20:23;;;;;;;25.90;22.53;;;19.50;99.90;;;;;;4958044;28;20993;-85
2022/08/19 06:22:51;;;;;;;25.77;23.00;;;19.50;99.90;;;;;;5010191;28;20504;-83
2022/08/19 06:25:18;;;;;;;28.40;25.53;;;19.50;99.90;;;;;;5024391;28;20454;-84
2022/08/19 06:27:45;;;;;;;25.10;22.47;;;19.50;99.90;;;;;;5028324;28;20452;-86
2022/08/19 06:30:14;;;;;;;27.23;24.50;;;19.50;99.90;;;;;;5025761;28;20468;-84
2022/08/19 06:32:41;;;;;;;27.13;24.13;;;19.60;99.90;;;;;;5025638;28;20481;-85
2022/08/19 06:35:08;;;;;;;27.97;24.23;;;19.50;99.90;;;;;;5025264;28;20455;-83
2022/08/19 06:37:36;;;;;;;27.00;24.07;;;19.50;99.90;;;;;;5024284;28;20445;-85
2022/08/19 06:40:05;;;;;;;26.77;23.90;;;19.50;99.90;;;;;;5024838;28;20473;-84
2022/08/19 06:42:32;;;;;;;26.90;24.20;;;19.50;99.90;;;;;;5027309;28;20493;-83
2022/08/19 06:45:02;;;;;;;26.40;23.70;;;19.50;99.90;;;;;;5024103;28;20448;-84
2022/08/19 06:47:32;;;;;;;25.23;22.70;;;19.50;99.90;;;;;;5026036;28;20464;-82
2022/08/19 06:50:02;;;;;;;29.20;26.00;;;19.40;99.90;;;;;;5026713;28;20503;-85
2022/08/19 06:52:29;;;;;;;29.43;26.07;;;19.40;99.90;;;;;;5026337;28;20472;-84
2022/08/19 06:54:56;;;;;;;29.40;26.40;;;19.30;99.90;;;;;;5035242;28;20452;-85
2022/08/19 06:57:23;;;;;;;27.60;24.90;;;19.20;99.90;;;;;;5033553;28;20451;-84
2022/08/19 06:59:54;;;;;;;29.00;26.10;;;19.20;99.90;;;;;;5034659;28;20456;-87
2022/08/19 07:02:29;;;;;;;30.10;26.90;;;19.20;99.90;;;;;;5031362;28;20481;-86
2022/08/19 07:05:14;;;;;;;28.93;25.93;;;19.20;99.90;;;;;;5031551;28;20540;-87
2022/08/19 07:07:52;;;;;;;29.17;25.57;;;19.20;99.90;;;;;;5030030;28;20483;-86
2022/08/19 07:10:22;;;;;;;29.67;25.60;;;19.10;99.90;;;;;;5034147;28;20481;-87
2022/08/19 07:12:53;;;;;;;29.87;26.63;;;19.10;99.90;;;;;;5035986;28;20481;-87
2022/08/19 07:15:21;;;;;;;29.40;25.67;;;19.00;99.90;;;;;;5035874;28;20564;-86
2022/08/19 07:18:30;;;;;;;27.07;24.30;;;19.00;99.90;;;;;;5031587;28;20460;-88
2022/08/19 07:21:11;;;;;;;31.47;27.43;;;19.00;99.90;;;;;;5030683;28;20459;-85
2022/08/19 07:26:45;;;;;;;31.47;26.33;;;19.00;99.90;;;;;;5029994;28;20519;-87
2022/08/19 07:29:23;;;;;;;25.30;22.57;;;19.00;99.90;;;;;;5035133;28;20432;-86
2022/08/19 07:31:56;;;;;;;26.27;23.67;;;19.00;99.90;;;;;;5035048;28;20866;-85
2022/08/19 07:34:36;;;;;;;26.00;23.20;;;19.00;99.90;;;;;;5035316;28;20445;-85
2022/08/19 07:37:28;;;;;;;29.17;24.83;;;18.90;99.90;;;;;;5034567;28;20539;-85
2022/08/19 07:40:43;;;;;;;28.60;25.70;;;19.00;99.90;;;;;;5033559;28;20596;-86
2022/08/19 07:50:29;;;;;;;25.17;22.57;;;18.90;99.90;;;;;;5012231;28;20437;-85
2022/08/19 07:53:30;;;;;;;25.73;22.80;;;19.00;99.90;;;;;;5031610;28;20546;-87
2022/08/19 07:56:09;;;;;;;27.73;24.73;;;19.00;99.90;;;;;;5034106;28;20818;-85
2022/08/19 08:01:23;;;;;;;27.13;24.17;;;19.00;99.90;;;;;;5036531;28;20546;-86
2022/08/19 08:09:25;;;;;;;33.27;29.80;;;19.00;99.90;;;;;;5036146;28;20463;-86
2022/08/19 08:11:54;;;;;;;27.53;24.07;;;18.90;99.90;;;;;;5017641;28;20563;-86
2022/08/19 08:14:24;;;;;;;27.53;24.63;;;18.90;99.90;;;;;;5021401;28;20465;-86
2022/08/19 08:16:54;;;;;;;30.67;25.97;;;18.90;99.90;;;;;;5020214;28;20468;-86
2022/08/19 08:19:23;;;;;;;25.67;23.00;;;18.90;99.90;;;;;;5019648;28;20469;-85
2022/08/19 08:21:51;;;;;;;29.70;26.60;;;18.80;99.90;;;;;;5037211;28;20481;-86
2022/08/19 08:24:18;;;;;;;36.90;24.60;;;18.70;99.90;;;;;;5035305;28;20488;-86
2022/08/19 08:26:47;;;;;;;31.73;26.33;;;18.70;99.90;;;;;;5035579;28;20464;-85
2022/08/19 08:29:15;;;;;;;28.00;25.10;;;18.70;99.90;;;;;;5034666;28;20518;-85
2022/08/19 08:31:47;;;;;;;34.73;27.37;;;18.60;99.90;;;;;;5034471;28;20535;-86
2022/08/19 08:34:16;;;;;;;28.70;25.60;;;18.60;99.90;;;;;;5035011;28;20460;-84
2022/08/19 08:43:51;;;;;;;32.60;29.10;;;18.30;99.90;;;;;;4934173;29;20475;-87
2022/08/19 08:46:25;;;;;;;36.87;32.83;;;18.20;99.90;;;;;;4932933;29;20456;-88
2022/08/19 08:48:58;;;;;;;35.50;30.77;;;18.20;99.90;;;;;;5012536;28;21001;-85
2022/08/19 08:51:29;;;;;;;35.20;31.63;;;18.20;99.90;;;;;;5022893;28;20484;-85
2022/08/19 08:54:27;;;;;;;34.03;30.13;;;18.20;99.90;;;;;;5025532;28;20444;-84
2022/08/19 08:56:55;;;;;;;32.70;27.53;;;18.10;99.90;;;;;;5020880;28;20512;-84
2022/08/19 08:59:32;;;;;;;41.80;31.67;;;18.10;99.90;;;;;;5025707;28;21128;-85
2022/08/19 09:02:01;;;;;;;33.67;28.83;;;18.20;99.90;;;;;;5024978;28;20477;-85
2022/08/19 09:04:28;;;;;;;34.43;30.73;;;18.20;99.90;;;;;;5026277;28;20487;-83
2022/08/19 09:07:08;;;;;;;33.37;29.47;;;18.30;99.90;;;;;;5035795;28;20774;-84
2022/08/19 09:09:39;;;;;;;36.87;30.87;;;18.30;99.90;;;;;;5028952;28;20536;-84
2022/08/19 09:12:15;;;;;;;35.87;30.17;;;18.40;99.90;;;;;;5033609;28;20480;-85
2022/08/19 09:14:49;;;;;;;32.97;27.90;;;18.40;99.90;;;;;;5042754;28;20466;-84
2022/08/19 09:17:17;;;;;;;31.80;28.50;;;18.40;99.90;;;;;;5046936;28;20444;-84
2022/08/19 09:19:52;;;;;;;33.00;29.50;;;18.50;99.90;;;;;;5041658;28;20453;-86
2022/08/19 09:22:21;;;;;;;33.60;28.87;;;18.50;99.90;;;;;;5040460;28;20472;-84
2022/08/19 09:24:49;;;;;;;33.20;29.83;;;18.60;99.90;;;;;;5039057;28;20498;-81
2022/08/19 09:27:16;;;;;;;33.80;29.30;;;18.60;99.90;;;;;;5036813;28;20456;-83
2022/08/19 09:29:44;;;;;;;30.00;26.87;;;18.60;99.90;;;;;;5036375;28;20460;-83
2022/08/19 09:34:54;;;;;;;30.57;27.40;;;18.80;99.90;;;;;;5038780;28;20535;-85
2022/08/19 09:37:21;;;;;;;27.70;24.90;;;18.80;99.90;;;;;;5036081;28;20998;-83
2022/08/19 09:39:49;;;;;;;29.30;25.90;;;18.90;99.90;;;;;;5030666;28;20449;-83
2022/08/19 09:42:16;;;;;;;26.33;23.80;;;18.90;99.90;;;;;;5026356;28;20471;-84
2022/08/19 09:44:48;;;;;;;31.13;25.10;;;19.10;99.90;;;;;;5036146;28;21058;-84
2022/08/19 09:50:10;;;;;;;29.70;26.60;;;19.10;99.90;;;;;;5035777;28;20452;-85
2022/08/19 09:52:39;;;;;;;28.53;25.57;;;19.10;99.90;;;;;;5020985;28;20511;-84
2022/08/19 09:55:07;;;;;;;27.43;24.57;;;19.20;99.90;;;;;;5037062;28;20523;-83
2022/08/19 09:57:34;;;;;;;26.90;24.20;;;19.20;99.90;;;;;;5037045;28;20459;-84
2022/08/19 10:00:10;;;;;;;26.77;23.77;;;19.20;99.90;;;;;;5039550;28;20437;-84
2022/08/19 10:02:37;;;;;;;25.07;22.43;;;19.20;99.90;;;;;;5037903;28;20453;-87
2022/08/19 10:07:55;;;;;;;26.03;23.60;;;19.20;99.90;;;;;;5038229;28;20476;-85
2022/08/19 10:10:37;;;;;;;26.10;23.53;;;19.30;99.90;;;;;;5040094;28;20460;-85
2022/08/19 10:13:09;;;;;;;25.33;22.83;;;19.40;99.90;;;;;;5038670;28;20510;-85
2022/08/19 10:16:21;;;;;;;28.73;25.73;;;19.50;99.90;;;;;;5039492;28;20464;-85
2022/08/19 10:19:00;;;;;;;27.07;24.37;;;19.60;99.90;;;;;;5037193;28;20453;-85
2022/08/19 10:22:04;;;;;;;26.57;23.73;;;19.50;99.90;;;;;;5038415;28;20813;-86
2022/08/19 10:24:30;;;;;;;28.90;25.80;;;19.40;99.90;;;;;;5036119;28;20494;-84
2022/08/19 10:27:13;;;;;;;27.37;24.73;;;19.40;99.90;;;;;;5034600;28;20448;-85
2022/08/19 10:30:11;;;;;;;25.77;23.27;;;19.30;99.90;;;;;;5015511;28;20452;-85
2022/08/19 10:39:37;;;;;;;26.40;23.67;;;19.50;99.90;;;;;;5033734;28;20943;-87
2022/08/19 10:42:37;;;;;;;29.63;25.57;;;19.50;99.90;;;;;;5033145;28;20628;-86
2022/08/19 10:45:09;;;;;;;26.50;24.00;;;19.50;99.90;;;;;;5034532;28;20515;-87
2022/08/19 10:47:38;;;;;;;27.43;24.53;;;19.50;99.90;;;;;;5055070;28;20542;-86
2022/08/19 10:52:52;;;;;;;25.93;23.10;;;19.40;99.90;;;;;;5062923;28;20912;-87
2022/08/19 10:58:12;;;;;;;27.70;25.10;;;19.30;99.90;;;;;;5056894;28;20543;-86
2022/08/19 11:00:40;;;;;;;28.40;25.60;;;19.40;99.90;;;;;;5056711;28;20452;-83
2022/08/19 11:03:07;;;;;;;24.97;22.57;;;19.50;99.90;;;;;;5061977;28;20506;-84
2022/08/19 11:05:37;;;;;;;23.93;21.60;;;19.40;99.90;;;;;;5061981;28;20483;-84
2022/08/19 11:08:05;;;;;;;24.23;21.57;;;19.40;99.90;;;;;;5061901;28;20452;-84
2022/08/19 11:10:33;;;;;;;22.73;20.50;;;19.40;99.90;;;;;;5062485;28;20448;-83
2022/08/19 11:13:00;;;;;;;22.77;20.03;;;19.40;99.90;;;;;;5063765;28;20471;-84
2022/08/19 11:15:28;;;;;;;22.40;20.20;;;19.40;99.90;;;;;;5062744;28;20451;-83
2022/08/19 11:17:55;;;;;;;25.47;20.60;;;19.50;99.90;;;;;;5060256;28;20451;-83
2022/08/19 11:20:23;;;;;;;21.03;19.10;;;19.50;99.90;;;;;;5055455;28;20466;-83
2022/08/19 11:22:53;;;;;;;25.03;21.50;;;19.60;99.90;;;;;;5056357;28;20574;-82
2022/08/19 11:25:20;;;;;;;20.80;18.70;;;19.70;99.90;;;;;;5056426;28;20495;-81
2022/08/19 11:27:50;;;;;;;21.23;19.33;;;19.80;99.90;;;;;;5035762;28;20472;-83
2022/08/19 11:30:17;;;;;;;21.43;19.37;;;19.80;99.90;;;;;;5035800;28;20449;-82
2022/08/19 11:32:44;;;;;;;23.50;19.47;;;19.90;99.90;;;;;;5054747;28;20480;-82
2022/08/19 11:35:11;;;;;;;20.67;18.27;;;20.10;99.90;;;;;;5056386;28;20452;-82
2022/08/19 11:37:38;;;;;;;19.17;17.27;;;20.20;99.90;;;;;;5056202;28;20452;-82
2022/08/19 11:40:07;;;;;;;20.83;18.80;;;20.40;99.90;;;;;;5057195;28;20524;-82
2022/08/19 11:45:20;;;;;;;20.23;18.43;;;20.70;99.90;;;;;;5057221;28;20480;-83
2022/08/19 11:47:47;;;;;;;20.17;18.27;;;20.90;99.90;;;;;;5059737;28;20445;-84
2022/08/19 11:50:14;;;;;;;19.40;17.40;;;21.10;99.90;;;;;;5057439;28;20460;-83
2022/08/19 11:52:40;;;;;;;19.03;17.13;;;21.40;99.90;;;;;;5057033;28;21067;-84
2022/08/19 11:55:08;;;;;;;17.90;16.23;;;21.60;99.90;;;;;;5057205;28;20471;-84
2022/08/19 11:57:35;;;;;;;19.27;17.33;;;21.80;99.90;;;;;;5056957;28;20454;-84
2022/08/19 12:00:04;;;;;;;18.07;16.30;;;21.90;99.90;;;;;;5056744;28;20457;-83
2022/08/19 12:02:32;;;;;;;17.30;15.63;;;21.90;99.90;;;;;;5056946;28;20466;-83
2022/08/19 12:05:02;;;;;;;17.53;16.13;;;21.80;99.90;;;;;;5059897;28;20489;-84
2022/08/19 12:07:31;;;;;;;18.23;16.37;;;21.80;99.90;;;;;;5073593;28;20466;-82
2022/08/19 12:09:58;;;;;;;17.30;15.80;;;21.80;99.90;;;;;;5072786;28;20447;-83
2022/08/19 12:12:26;;;;;;;16.60;15.00;;;22.00;99.90;;;;;;5063209;28;20475;-84
2022/08/19 12:14:56;;;;;;;16.97;15.67;;;22.10;99.90;;;;;;5062755;28;20457;-84
2022/08/19 12:17:23;;;;;;;16.30;14.83;;;22.10;99.90;;;;;;5061960;28;20510;-83
2022/08/19 12:19:51;;;;;;;17.00;15.40;;;22.10;99.90;;;;;;5060420;28;20446;-84
2022/08/19 12:22:21;;;;;;;15.30;14.00;;;22.30;99.90;;;;;;5062261;28;20473;-85
2022/08/19 12:24:50;;;;;;;14.63;13.50;;;22.60;99.90;;;;;;5066933;28;20491;-85
2022/08/19 12:27:16;;;;;;;17.07;15.67;;;22.60;99.90;;;;;;5065440;28;20462;-83
2022/08/19 12:29:43;;;;;;;16.70;15.30;;;22.70;99.90;;;;;;5064863;28;20458;-84
2022/08/19 12:32:10;;;;;;;19.47;17.77;;;22.90;99.90;;;;;;5064724;28;20482;-85
2022/08/19 12:34:38;;;;;;;21.60;19.37;;;23.10;99.90;;;;;;5063935;28;20451;-85
2022/08/19 12:45:40;;;;;;;24.47;22.07;;;23.20;99.90;;;;;;5060686;28;20490;-86
2022/08/19 12:48:09;;;;;;;26.07;23.77;;;23.10;99.90;;;;;;5064380;28;20455;-85
2022/08/19 12:50:46;;;;;;;25.20;22.70;;;23.00;99.90;;;;;;5065765;28;20533;-85
2022/08/19 12:53:16;;;;;;;25.90;23.50;;;22.90;99.90;;;;;;5066185;28;20551;-84
2022/08/19 12:55:59;;;;;;;25.57;22.90;;;22.80;99.90;;;;;;5066862;28;20518;-85
2022/08/19 12:58:26;;;;;;;27.97;24.50;;;22.70;99.90;;;;;;5063750;28;20481;-85
2022/08/19 13:00:53;;;;;;;30.77;27.67;;;22.60;99.90;;;;;;5065361;28;20472;-84
2022/08/19 13:03:28;;;;;;;29.17;26.23;;;22.40;99.90;;;;;;5064745;28;20504;-85
2022/08/19 13:06:29;;;;;;;29.47;26.33;;;22.30;99.90;;;;;;5065215;28;20484;-85
2022/08/19 13:08:58;;;;;;;32.40;29.10;;;22.30;99.90;;;;;;5038454;28;20447;-85
2022/08/19 13:11:32;;;;;;;28.03;25.33;;;22.30;99.90;;;;;;5046242;28;20458;-85
2022/08/19 13:14:00;;;;;;;30.30;27.20;;;22.30;99.90;;;;;;5067797;28;20460;-85
2022/08/19 13:22:48;;;;;;;29.20;26.20;;;22.20;99.90;;;;;;5046848;28;20487;-85
2022/08/19 13:26:12;;;;;;;30.27;27.30;;;22.20;99.90;;;;;;5062260;28;20473;-84
2022/08/19 13:52:21;;;;;;;30.50;27.40;;;22.10;99.90;;;;;;4902993;29;20524;-85
2022/08/19 16:15:01;;;;;;;18.87;17.27;;;24.90;99.90;;;;;;5065074;28;20441;-83
2022/08/19 16:17:28;;;;;;;18.40;17.00;;;25.20;99.90;;;;;;5067312;28;20458;-84
2022/08/19 16:19:55;;;;;;;19.40;17.87;;;25.40;99.90;;;;;;5066813;28;20525;-83
2022/08/19 16:22:29;;;;;;;17.70;16.10;;;25.70;99.90;;;;;;5067294;28;20532;-82
2022/08/19 16:24:56;;;;;;;18.03;16.60;;;26.00;99.90;;;;;;5056997;28;20482;-83
2022/08/19 16:27:29;;;;;;;17.93;16.60;;;26.10;99.90;;;;;;5063357;28;20464;-84
2022/08/19 16:29:56;;;;;;;20.93;18.93;;;26.20;99.90;;;;;;5064244;28;20978;-83
2022/08/19 16:32:24;;;;;;;19.10;17.67;;;26.20;99.90;;;;;;5056657;28;20800;-85
2022/08/19 16:34:51;;;;;;;20.03;18.37;;;26.20;99.90;;;;;;5058802;28;20537;-84
2022/08/19 16:37:20;;;;;;;21.03;19.30;;;26.10;99.90;;;;;;5057325;28;20458;-85
2022/08/19 16:39:47;;;;;;;20.67;18.80;;;25.90;99.90;;;;;;5064914;28;20446;-84
2022/08/19 16:42:19;;;;;;;20.60;18.90;;;25.80;99.90;;;;;;5063886;28;20536;-84
2022/08/19 16:44:50;;;;;;;22.60;20.70;;;25.70;99.90;;;;;;5061267;28;20511;-84
2022/08/19 16:47:20;;;;;;;23.80;21.40;;;25.50;99.90;;;;;;5063865;28;20966;-84
2022/08/19 16:49:49;;;;;;;22.87;21.10;;;25.30;99.90;;;;;;5060096;28;20510;-83
2022/08/19 16:52:16;;;;;;;22.60;20.63;;;25.10;99.90;;;;;;5058588;28;21019;-83
2022/08/19 16:54:43;;;;;;;21.60;19.70;;;24.80;99.90;;;;;;5062870;28;21032;-84
2022/08/19 16:57:09;;;;;;;23.03;20.93;;;24.60;99.90;;;;;;5063554;28;20449;-84
2022/08/19 16:59:36;;;;;;;23.57;21.57;;;24.20;99.90;;;;;;5062639;28;20449;-83
2022/08/19 17:02:03;;;;;;;21.23;19.60;;;24.00;99.90;;;;;;5061769;28;20474;-84